Terminal Aerodrome Forecast
Issued by NWS

Home | Current Version | Previous Version | Text Only | Print | Product List | Glossary On
Versions: 1 2 3 4 5 6 7 8 9 10 11 12 13 14 15 16 17 18 19 20 21 22
000
FTUS43 KDLH 011900 AAA
TAFBRD
TAF AMD
KBRD 011930Z 0120/0218 VRB05KT P6SM VCTS SCT040 BKN060CB
     FM012300 VRB03KT P6SM SCT050
      TEMPO 0208/0212 1 1/2SM BR SCT003=

USA.gov is the U.S. government's official web portal to all federal, state and local government web resources and services.